sensor_id;sensor_type;location;lat;lon;timestamp;pressure;altitude;pressure_sealevel;temperature;humidity
60437;BME280;46289;51.992;4.498;2023-02-02T00:00:28;102382.81;;;7.61;81.03
60437;BME280;46289;51.992;4.498;2023-02-02T00:02:33;102396.78;;;7.61;80.95
60437;BME280;46289;51.992;4.498;2023-02-02T00:04:38;102388.06;;;7.56;81.40
60437;BME280;46289;51.992;4.498;2023-02-02T00:06:44;102383.72;;;7.57;80.86
60437;BME280;46289;51.992;4.498;2023-02-02T00:08:49;102394.16;;;7.69;80.43
60437;BME280;46289;51.992;4.498;2023-02-02T00:10:57;102390.66;;;7.72;80.42
60437;BME280;46289;51.992;4.498;2023-02-02T00:13:02;102393.28;;;7.64;80.96
60437;BME280;46289;51.992;4.498;2023-02-02T00:15:08;102393.28;;;7.59;81.10
60437;BME280;46289;51.992;4.498;2023-02-02T00:17:19;102400.25;;;7.62;81.51
60437;BME280;46289;51.992;4.498;2023-02-02T00:19:28;102393.28;;;7.64;80.93
60437;BME280;46289;51.992;4.498;2023-02-02T00:21:37;102389.81;;;7.59;80.82
60437;BME280;46289;51.992;4.498;2023-02-02T00:23:51;102400.25;;;7.65;80.97
60437;BME280;46289;51.992;4.498;2023-02-02T00:25:59;102402.88;;;7.66;80.78
60437;BME280;46289;51.992;4.498;2023-02-02T00:28:07;102395.91;;;7.64;81.21
60437;BME280;46289;51.992;4.498;2023-02-02T00:30:13;102403.75;;;7.67;80.87
60437;BME280;46289;51.992;4.498;2023-02-02T00:32:21;102390.66;;;7.64;80.60
60437;BME280;46289;51.992;4.498;2023-02-02T00:34:25;102388.91;;;7.69;80.03
60437;BME280;46289;51.992;4.498;2023-02-02T00:36:30;102408.97;;;7.67;80.64
60437;BME280;46289;51.992;4.498;2023-02-02T00:38:36;102415.94;;;7.74;79.88
60437;BME280;46289;51.992;4.498;2023-02-02T00:40:41;102404.56;;;7.74;79.66
60437;BME280;46289;51.992;4.498;2023-02-02T00:42:48;102405.44;;;7.76;79.76
60437;BME280;46289;51.992;4.498;2023-02-02T00:44:55;102406.34;;;7.70;80.60
60437;BME280;46289;51.992;4.498;2023-02-02T00:47:12;102410.69;;;7.74;79.88
60437;BME280;46289;51.992;4.498;2023-02-02T00:49:17;102413.31;;;7.71;80.41
60437;BME280;46289;51.992;4.498;2023-02-02T00:51:22;102415.91;;;7.71;80.23
60437;BME280;46289;51.992;4.498;2023-02-02T00:53:27;102417.69;;;7.67;80.23
60437;BME280;46289;51.992;4.498;2023-02-02T00:55:32;102407.22;;;7.66;80.46
60437;BME280;46289;51.992;4.498;2023-02-02T00:57:37;102411.56;;;7.70;80.50
60437;BME280;46289;51.992;4.498;2023-02-02T00:59:45;102408.06;;;7.73;79.93
60437;BME280;46289;51.992;4.498;2023-02-02T01:01:50;102415.06;;;7.70;80.04
60437;BME280;46289;51.992;4.498;2023-02-02T01:03:56;102412.47;;;7.64;80.72
60437;BME280;46289;51.992;4.498;2023-02-02T01:06:02;102422.06;;;7.67;80.43
60437;BME280;46289;51.992;4.498;2023-02-02T01:08:07;102415.94;;;7.68;80.45
60437;BME280;46289;51.992;4.498;2023-02-02T01:10:14;102416.81;;;7.67;80.62
60437;BME280;46289;51.992;4.498;2023-02-02T01:12:20;102410.72;;;7.69;80.47
60437;BME280;46289;51.992;4.498;2023-02-02T01:14:25;102419.41;;;7.73;80.23
60437;BME280;46289;51.992;4.498;2023-02-02T01:16:33;102405.44;;;7.76;79.98
60437;BME280;46289;51.992;4.498;2023-02-02T01:18:38;102406.34;;;7.67;80.54
60437;BME280;46289;51.992;4.498;2023-02-02T01:20:45;102409.81;;;7.72;80.24
60437;BME280;46289;51.992;4.498;2023-02-02T01:22:50;102415.06;;;7.72;80.17
60437;BME280;46289;51.992;4.498;2023-02-02T01:24:55;102404.59;;;7.66;80.25
60437;BME280;46289;51.992;4.498;2023-02-02T01:27:00;102389.78;;;7.69;80.23
60437;BME280;46289;51.992;4.498;2023-02-02T01:29:05;102394.13;;;7.66;80.60
60437;BME280;46289;51.992;4.498;2023-02-02T01:31:12;102400.22;;;7.71;80.16
60437;BME280;46289;51.992;4.498;2023-02-02T01:33:20;102401.97;;;7.67;80.55
60437;BME280;46289;51.992;4.498;2023-02-02T01:35:25;102406.34;;;7.67;80.55
60437;BME280;46289;51.992;4.498;2023-02-02T01:37:31;102405.47;;;7.63;80.53
60437;BME280;46289;51.992;4.498;2023-02-02T01:39:38;102393.28;;;7.64;80.65
60437;BME280;46289;51.992;4.498;2023-02-02T01:41:52;102404.63;;;7.64;80.50
60437;BME280;46289;51.992;4.498;2023-02-02T01:43:59;102408.13;;;7.62;80.87
60437;BME280;46289;51.992;4.498;2023-02-02T01:46:09;102414.22;;;7.64;80.44
60437;BME280;46289;51.992;4.498;2023-02-02T01:48:15;102415.94;;;7.65;80.41
60437;BME280;46289;51.992;4.498;2023-02-02T01:50:28;102410.72;;;7.65;80.07
60437;BME280;46289;51.992;4.498;2023-02-02T01:52:37;102420.34;;;7.61;80.67
60437;BME280;46289;51.992;4.498;2023-02-02T01:54:48;102408.16;;;7.56;80.90
60437;BME280;46289;51.992;4.498;2023-02-02T01:57:00;102395.03;;;7.62;80.63
60437;BME280;46289;51.992;4.498;2023-02-02T01:59:06;102408.97;;;7.61;80.82
60437;BME280;46289;51.992;4.498;2023-02-02T02:01:12;102415.06;;;7.63;80.74
60437;BME280;46289;51.992;4.498;2023-02-02T02:03:24;102407.25;;;7.61;80.74
60437;BME280;46289;51.992;4.498;2023-02-02T02:05:36;102413.34;;;7.62;80.79
60437;BME280;46289;51.992;4.498;2023-02-02T02:07:42;102417.69;;;7.63;80.34
60437;BME280;46289;51.992;4.498;2023-02-02T02:09:51;102425.53;;;7.67;80.09
60437;BME280;46289;51.992;4.498;2023-02-02T02:11:56;102430.78;;;7.61;80.83
60437;BME280;46289;51.992;4.498;2023-02-02T02:14:03;102419.44;;;7.61;80.64
60437;BME280;46289;51.992;4.498;2023-02-02T02:16:29;102413.31;;;7.63;80.35
60437;BME280;46289;51.992;4.498;2023-02-02T02:18:49;102412.44;;;7.66;80.42
60437;BME280;46289;51.992;4.498;2023-02-02T02:21:25;102407.22;;;7.66;80.60
60437;BME280;46289;51.992;4.498;2023-02-02T02:26:50;102411.59;;;7.67;80.14
60437;BME280;46289;51.992;4.498;2023-02-02T02:29:23;102409.84;;;7.67;80.57
60437;BME280;46289;51.992;4.498;2023-02-02T02:31:58;102410.69;;;7.63;80.80
60437;BME280;46289;51.992;4.498;2023-02-02T02:34:10;102412.44;;;7.66;80.59
60437;BME280;46289;51.992;4.498;2023-02-02T02:36:23;102413.34;;;7.66;80.60
60437;BME280;46289;51.992;4.498;2023-02-02T02:38:39;102415.06;;;7.69;80.22
60437;BME280;46289;51.992;4.498;2023-02-02T02:40:50;102410.72;;;7.66;80.74
60437;BME280;46289;51.992;4.498;2023-02-02T02:42:58;102413.31;;;7.71;80.35
60437;BME280;46289;51.992;4.498;2023-02-02T02:45:07;102421.19;;;7.69;80.67
60437;BME280;46289;51.992;4.498;2023-02-02T02:47:18;102412.44;;;7.66;80.69
60437;BME280;46289;51.992;4.498;2023-02-02T02:49:24;102412.44;;;7.70;80.02
60437;BME280;46289;51.992;4.498;2023-02-02T02:51:41;102405.47;;;7.74;79.77
60437;BME280;46289;51.992;4.498;2023-02-02T02:53:47;102415.06;;;7.70;79.90
60437;BME280;46289;51.992;4.498;2023-02-02T02:55:57;102411.59;;;7.67;80.25
60437;BME280;46289;51.992;4.498;2023-02-02T02:58:12;102408.97;;;7.72;80.17
60437;BME280;46289;51.992;4.498;2023-02-02T03:00:34;102401.13;;;7.67;80.40
60437;BME280;46289;51.992;4.498;2023-02-02T03:02:48;102404.63;;;7.64;80.61
60437;BME280;46289;51.992;4.498;2023-02-02T03:04:57;102402.84;;;7.69;80.38
60437;BME280;46289;51.992;4.498;2023-02-02T03:07:09;102401.97;;;7.67;80.48
60437;BME280;46289;51.992;4.498;2023-02-02T03:09:22;102408.09;;;7.68;80.26
60437;BME280;46289;51.992;4.498;2023-02-02T03:11:30;102396.75;;;7.64;80.44
60437;BME280;46289;51.992;4.498;2023-02-02T03:13:39;102396.78;;;7.60;80.79
60437;BME280;46289;51.992;4.498;2023-02-02T03:15:47;102402.00;;;7.60;80.48
60437;BME280;46289;51.992;4.498;2023-02-02T03:17:57;102395.88;;;7.65;80.47
60437;BME280;46289;51.992;4.498;2023-02-02T03:20:07;102412.47;;;7.63;80.88
60437;BME280;46289;51.992;4.498;2023-02-02T03:22:13;102411.59;;;7.64;80.48
60437;BME280;46289;51.992;4.498;2023-02-02T03:24:18;102418.56;;;7.62;80.79
60437;BME280;46289;51.992;4.498;2023-02-02T03:26:23;102413.34;;;7.65;80.36
60437;BME280;46289;51.992;4.498;2023-02-02T03:28:28;102410.72;;;7.60;80.72
60437;BME280;46289;51.992;4.498;2023-02-02T03:30:37;102422.91;;;7.72;80.08
60437;BME280;46289;51.992;4.498;2023-02-02T03:32:42;102425.53;;;7.69;80.28
60437;BME280;46289;51.992;4.498;2023-02-02T03:34:50;102429.03;;;7.62;80.76
60437;BME280;46289;51.992;4.498;2023-02-02T03:36:54;102433.38;;;7.63;80.47
60437;BME280;46289;51.992;4.498;2023-02-02T03:39:00;102426.41;;;7.65;80.29
60437;BME280;46289;51.992;4.498;2023-02-02T03:41:06;102427.28;;;7.70;80.17
60437;BME280;46289;51.992;4.498;2023-02-02T03:43:11;102423.78;;;7.69;80.10
60437;BME280;46289;51.992;4.498;2023-02-02T03:45:16;102432.53;;;7.67;80.29
60437;BME280;46289;51.992;4.498;2023-02-02T03:47:21;102430.78;;;7.64;80.50
60437;BME280;46289;51.992;4.498;2023-02-02T03:49:26;102442.97;;;7.67;80.34
60437;BME280;46289;51.992;4.498;2023-02-02T03:51:37;102443.84;;;7.70;80.70
60437;BME280;46289;51.992;4.498;2023-02-02T03:53:51;102443.84;;;7.70;80.56
60437;BME280;46289;51.992;4.498;2023-02-02T03:55:58;102436.00;;;7.69;80.55
60437;BME280;46289;51.992;4.498;2023-02-02T03:58:03;102449.06;;;7.72;80.59
60437;BME280;46289;51.992;4.498;2023-02-02T04:00:10;102438.59;;;7.74;80.83
60437;BME280;46289;51.992;4.498;2023-02-02T04:02:17;102453.44;;;7.73;80.86
60437;BME280;46289;51.992;4.498;2023-02-02T04:04:22;102455.13;;;7.82;80.41
60437;BME280;46289;51.992;4.498;2023-02-02T04:06:27;102444.69;;;7.80;80.67
60437;BME280;46289;51.992;4.498;2023-02-02T04:08:35;102434.22;;;7.76;80.36
60437;BME280;46289;51.992;4.498;2023-02-02T04:10:41;102436.84;;;7.73;80.76
60437;BME280;46289;51.992;4.498;2023-02-02T04:12:49;102439.47;;;7.74;80.73
60437;BME280;46289;51.992;4.498;2023-02-02T04:14:54;102437.72;;;7.76;80.59
60437;BME280;46289;51.992;4.498;2023-02-02T04:16:59;102453.44;;;7.73;80.56
60437;BME280;46289;51.992;4.498;2023-02-02T04:19:05;102434.25;;;7.74;80.62
60437;BME280;46289;51.992;4.498;2023-02-02T04:21:10;102433.38;;;7.72;80.16
60437;BME280;46289;51.992;4.498;2023-02-02T04:23:17;102436.84;;;7.77;80.20
60437;BME280;46289;51.992;4.498;2023-02-02T04:25:24;102442.09;;;7.74;80.25
60437;BME280;46289;51.992;4.498;2023-02-02T04:27:29;102439.47;;;7.71;80.47
60437;BME280;46289;51.992;4.498;2023-02-02T04:29:38;102439.47;;;7.74;80.18
60437;BME280;46289;51.992;4.498;2023-02-02T04:31:45;102435.97;;;7.75;80.50
60437;BME280;46289;51.992;4.498;2023-02-02T04:33:50;102442.06;;;7.76;80.08
60437;BME280;46289;51.992;4.498;2023-02-02T04:35:56;102438.59;;;7.74;80.07
60437;BME280;46289;51.992;4.498;2023-02-02T04:38:01;102447.31;;;7.71;80.62
60437;BME280;46289;51.992;4.498;2023-02-02T04:40:08;102449.06;;;7.74;79.98
60437;BME280;46289;51.992;4.498;2023-02-02T04:42:15;102451.69;;;7.70;80.27
60437;BME280;46289;51.992;4.498;2023-02-02T04:44:20;102463.03;;;7.74;80.45
60437;BME280;46289;51.992;4.498;2023-02-02T04:46:25;102453.41;;;7.79;80.10
60437;BME280;46289;51.992;4.498;2023-02-02T04:48:30;102451.69;;;7.72;80.18
60437;BME280;46289;51.992;4.498;2023-02-02T04:50:38;102456.91;;;7.78;80.02
60437;BME280;46289;51.992;4.498;2023-02-02T04:52:46;102456.03;;;7.81;79.92
60437;BME280;46289;51.992;4.498;2023-02-02T04:54:51;102457.78;;;7.76;80.22
60437;BME280;46289;51.992;4.498;2023-02-02T04:56:56;102460.41;;;7.74;80.53
60437;BME280;46289;51.992;4.498;2023-02-02T04:59:04;102454.28;;;7.74;80.42
60437;BME280;46289;51.992;4.498;2023-02-02T05:01:10;102456.03;;;7.76;80.13
60437;BME280;46289;51.992;4.498;2023-02-02T05:03:16;102454.31;;;7.72;80.27
60437;BME280;46289;51.992;4.498;2023-02-02T05:05:21;102458.66;;;7.73;80.13
60437;BME280;46289;51.992;4.498;2023-02-02T05:07:26;102456.91;;;7.75;80.15
60437;BME280;46289;51.992;4.498;2023-02-02T05:09:31;102461.31;;;7.72;80.23
60437;BME280;46289;51.992;4.498;2023-02-02T05:11:39;102456.06;;;7.70;80.50
60437;BME280;46289;51.992;4.498;2023-02-02T05:13:46;102453.44;;;7.68;80.79
60437;BME280;46289;51.992;4.498;2023-02-02T05:15:55;102463.06;;;7.66;80.60
60437;BME280;46289;51.992;4.498;2023-02-02T05:18:00;102455.19;;;7.65;80.79
60437;BME280;46289;51.992;4.498;2023-02-02T05:20:06;102463.00;;;7.71;80.57
60437;BME280;46289;51.992;4.498;2023-02-02T05:22:12;102463.91;;;7.70;80.72
60437;BME280;46289;51.992;4.498;2023-02-02T05:24:17;102459.56;;;7.67;80.54
60437;BME280;46289;51.992;4.498;2023-02-02T05:26:23;102451.66;;;7.74;80.31
60437;BME280;46289;51.992;4.498;2023-02-02T05:28:28;102463.91;;;7.70;80.63
60437;BME280;46289;51.992;4.498;2023-02-02T05:30:38;102468.28;;;7.66;80.53
60437;BME280;46289;51.992;4.498;2023-02-02T05:32:46;102472.63;;;7.66;80.76
60437;BME280;46289;51.992;4.498;2023-02-02T05:34:54;102462.19;;;7.64;80.96
60437;BME280;46289;51.992;4.498;2023-02-02T05:36:59;102467.38;;;7.66;80.63
60437;BME280;46289;51.992;4.498;2023-02-02T05:39:06;102470.91;;;7.66;80.63
60437;BME280;46289;51.992;4.498;2023-02-02T05:41:11;102464.78;;;7.66;80.50
60437;BME280;46289;51.992;4.498;2023-02-02T05:43:16;102463.91;;;7.62;80.91
60437;BME280;46289;51.992;4.498;2023-02-02T05:45:22;102465.66;;;7.60;81.25
60437;BME280;46289;51.992;4.498;2023-02-02T05:47:27;102455.19;;;7.65;80.71
60437;BME280;46289;51.992;4.498;2023-02-02T05:49:35;102459.56;;;7.61;80.80
60437;BME280;46289;51.992;4.498;2023-02-02T05:51:42;102460.44;;;7.65;80.76
60437;BME280;46289;51.992;4.498;2023-02-02T05:53:48;102457.81;;;7.60;81.16
60437;BME280;46289;51.992;4.498;2023-02-02T05:55:54;102463.06;;;7.62;81.46
60437;BME280;46289;51.992;4.498;2023-02-02T05:58:00;102470.91;;;7.62;81.15
60437;BME280;46289;51.992;4.498;2023-02-02T06:00:09;102476.13;;;7.62;81.34
60437;BME280;46289;51.992;4.498;2023-02-02T06:02:18;102472.66;;;7.58;81.88
60437;BME280;46289;51.992;4.498;2023-02-02T06:04:23;102466.53;;;7.61;81.47
60437;BME280;46289;51.992;4.498;2023-02-02T06:06:30;102474.41;;;7.64;81.44
60437;BME280;46289;51.992;4.498;2023-02-02T06:08:39;102470.03;;;7.61;81.41
60437;BME280;46289;51.992;4.498;2023-02-02T06:10:46;102480.47;;;7.63;81.47
60437;BME280;46289;51.992;4.498;2023-02-02T06:12:51;102490.97;;;7.61;81.43
60437;BME280;46289;51.992;4.498;2023-02-02T06:14:56;102478.75;;;7.65;81.27
60437;BME280;46289;51.992;4.498;2023-02-02T06:17:01;102485.72;;;7.64;81.27
60437;BME280;46289;51.992;4.498;2023-02-02T06:19:07;102487.47;;;7.67;81.28
60437;BME280;46289;51.992;4.498;2023-02-02T06:21:12;102483.09;;;7.63;81.21
60437;BME280;46289;51.992;4.498;2023-02-02T06:23:20;102489.22;;;7.65;80.90
60437;BME280;46289;51.992;4.498;2023-02-02T06:25:25;102493.56;;;7.69;80.56
60437;BME280;46289;51.992;4.498;2023-02-02T06:27:31;102484.84;;;7.67;80.57
60437;BME280;46289;51.992;4.498;2023-02-02T06:29:38;102497.06;;;7.69;80.83
60437;BME280;46289;51.992;4.498;2023-02-02T06:31:45;102499.69;;;7.69;80.75
60437;BME280;46289;51.992;4.498;2023-02-02T06:33:55;102500.56;;;7.67;81.11
60437;BME280;46289;51.992;4.498;2023-02-02T06:36:02;102513.63;;;7.65;81.23
60437;BME280;46289;51.992;4.498;2023-02-02T06:38:08;102517.09;;;7.63;81.14
60437;BME280;46289;51.992;4.498;2023-02-02T06:40:17;102523.22;;;7.69;81.41
60437;BME280;46289;51.992;4.498;2023-02-02T06:42:22;102531.94;;;7.68;81.26
60437;BME280;46289;51.992;4.498;2023-02-02T06:44:27;102521.47;;;7.68;81.73
60437;BME280;46289;51.992;4.498;2023-02-02T06:46:32;102511.91;;;7.61;81.97
60437;BME280;46289;51.992;4.498;2023-02-02T06:48:37;102520.59;;;7.65;81.54
60437;BME280;46289;51.992;4.498;2023-02-02T06:50:42;102507.53;;;7.60;81.83
60437;BME280;46289;51.992;4.498;2023-02-02T06:52:47;102503.16;;;7.65;81.48
60437;BME280;46289;51.992;4.498;2023-02-02T06:54:52;102506.66;;;7.61;81.73
60437;BME280;46289;51.992;4.498;2023-02-02T06:57:04;102511.88;;;7.64;81.39
60437;BME280;46289;51.992;4.498;2023-02-02T06:59:10;102506.66;;;7.61;81.74
60437;BME280;46289;51.992;4.498;2023-02-02T07:01:15;102505.78;;;7.59;81.52
60437;BME280;46289;51.992;4.498;2023-02-02T07:03:20;102517.16;;;7.58;81.34
60437;BME280;46289;51.992;4.498;2023-02-02T07:05:26;102508.41;;;7.55;81.58
60437;BME280;46289;51.992;4.498;2023-02-02T07:07:33;102509.28;;;7.58;80.85
60437;BME280;46289;51.992;4.498;2023-02-02T07:09:38;102511.88;;;7.60;80.78
60437;BME280;46289;51.992;4.498;2023-02-02T07:11:45;102531.06;;;7.57;81.24
60437;BME280;46289;51.992;4.498;2023-02-02T07:13:52;102526.72;;;7.58;81.16
60437;BME280;46289;51.992;4.498;2023-02-02T07:16:02;102535.44;;;7.55;81.13
60437;BME280;46289;51.992;4.498;2023-02-02T07:18:07;102534.59;;;7.53;81.38
60437;BME280;46289;51.992;4.498;2023-02-02T07:20:12;102528.47;;;7.50;81.12
60437;BME280;46289;51.992;4.498;2023-02-02T07:22:17;102527.59;;;7.52;81.05
60437;BME280;46289;51.992;4.498;2023-02-02T07:24:22;102531.97;;;7.52;81.25
60437;BME280;46289;51.992;4.498;2023-02-02T07:26:28;102538.94;;;7.50;81.00
60437;BME280;46289;51.992;4.498;2023-02-02T07:28:39;102542.41;;;7.47;81.60
60437;BME280;46289;51.992;4.498;2023-02-02T07:30:47;102552.88;;;7.42;81.50
60437;BME280;46289;51.992;4.498;2023-02-02T07:32:52;102543.31;;;7.43;81.54
60437;BME280;46289;51.992;4.498;2023-02-02T07:34:59;102548.50;;;7.44;81.61
60437;BME280;46289;51.992;4.498;2023-02-02T07:37:05;102545.03;;;7.47;81.19
60437;BME280;46289;51.992;4.498;2023-02-02T07:39:10;102560.75;;;7.48;81.39
60437;BME280;46289;51.992;4.498;2023-02-02T07:41:17;102565.09;;;7.46;81.42
60437;BME280;46289;51.992;4.498;2023-02-02T07:43:22;102572.06;;;7.46;81.76
60437;BME280;46289;51.992;4.498;2023-02-02T07:45:27;102565.97;;;7.47;81.24
60437;BME280;46289;51.992;4.498;2023-02-02T07:47:36;102573.81;;;7.48;81.48
60437;BME280;46289;51.992;4.498;2023-02-02T07:49:41;102573.81;;;7.47;81.60
60437;BME280;46289;51.992;4.498;2023-02-02T07:51:49;102575.56;;;7.46;81.66
60437;BME280;46289;51.992;4.498;2023-02-02T07:53:54;102586.91;;;7.45;81.55
60437;BME280;46289;51.992;4.498;2023-02-02T07:56:07;102576.41;;;7.47;81.53
60437;BME280;46289;51.992;4.498;2023-02-02T07:58:13;102575.53;;;7.45;81.76
60437;BME280;46289;51.992;4.498;2023-02-02T08:00:22;102579.06;;;7.45;81.63
60437;BME280;46289;51.992;4.498;2023-02-02T08:02:27;102578.19;;;7.48;81.64
60437;BME280;46289;51.992;4.498;2023-02-02T08:04:36;102587.75;;;7.44;81.88
60437;BME280;46289;51.992;4.498;2023-02-02T08:06:41;102584.28;;;7.48;81.97
60437;BME280;46289;51.992;4.498;2023-02-02T08:08:50;102577.28;;;7.44;81.79
60437;BME280;46289;51.992;4.498;2023-02-02T08:10:55;102580.78;;;7.50;81.25
60437;BME280;46289;51.992;4.498;2023-02-02T08:13:00;102596.50;;;7.48;81.63
60437;BME280;46289;51.992;4.498;2023-02-02T08:15:10;102592.13;;;7.47;81.69
60437;BME280;46289;51.992;4.498;2023-02-02T08:17:15;102583.41;;;7.50;81.62
60437;BME280;46289;51.992;4.498;2023-02-02T08:19:20;102590.38;;;7.49;81.40
60437;BME280;46289;51.992;4.498;2023-02-02T08:21:31;102592.13;;;7.52;81.48
60437;BME280;46289;51.992;4.498;2023-02-02T08:23:40;102594.75;;;7.53;81.49
60437;BME280;46289;51.992;4.498;2023-02-02T08:25:47;102605.19;;;7.58;81.50
60437;BME280;46289;51.992;4.498;2023-02-02T08:27:52;102595.59;;;7.55;81.69
60437;BME280;46289;51.992;4.498;2023-02-02T08:29:59;102598.22;;;7.60;81.33
60437;BME280;46289;51.992;4.498;2023-02-02T08:32:06;102586.88;;;7.65;81.40
60437;BME280;46289;51.992;4.498;2023-02-02T08:34:11;102603.47;;;7.69;80.90
60437;BME280;46289;51.992;4.498;2023-02-02T08:36:19;102600.84;;;7.69;80.82
60437;BME280;46289;51.992;4.498;2023-02-02T08:38:27;102600.84;;;7.70;80.92
60437;BME280;46289;51.992;4.498;2023-02-02T08:40:32;102606.94;;;7.71;81.06
60437;BME280;46289;51.992;4.498;2023-02-02T08:42:37;102605.22;;;7.70;81.16
60437;BME280;46289;51.992;4.498;2023-02-02T08:44:42;102625.28;;;7.69;80.79
60437;BME280;46289;51.992;4.498;2023-02-02T08:47:08;102620.91;;;7.73;80.58
60437;BME280;46289;51.992;4.498;2023-02-02T08:49:15;102615.66;;;7.73;80.66
60437;BME280;46289;51.992;4.498;2023-02-02T08:51:20;102616.53;;;7.74;80.58
60437;BME280;46289;51.992;4.498;2023-02-02T08:53:28;102624.41;;;7.77;80.75
60437;BME280;46289;51.992;4.498;2023-02-02T08:55:33;102620.00;;;7.82;80.62
60437;BME280;46289;51.992;4.498;2023-02-02T08:57:38;102622.63;;;7.82;80.54
60437;BME280;46289;51.992;4.498;2023-02-02T08:59:46;102623.53;;;7.85;80.49
60437;BME280;46289;51.992;4.498;2023-02-02T09:01:51;102622.66;;;7.83;80.90
60437;BME280;46289;51.992;4.498;2023-02-02T09:03:59;102626.13;;;7.85;80.59
60437;BME280;46289;51.992;4.498;2023-02-02T09:06:08;102632.22;;;7.84;80.47
60437;BME280;46289;51.992;4.498;2023-02-02T09:08:13;102638.34;;;7.83;80.80
60437;BME280;46289;51.992;4.498;2023-02-02T09:10:23;102633.13;;;7.83;80.63
60437;BME280;46289;51.992;4.498;2023-02-02T09:12:29;102647.94;;;7.86;80.39
60437;BME280;46289;51.992;4.498;2023-02-02T09:14:35;102634.88;;;7.87;80.62
60437;BME280;46289;51.992;4.498;2023-02-02T09:16:40;102634.88;;;7.87;79.83
60437;BME280;46289;51.992;4.498;2023-02-02T09:18:49;102641.84;;;7.88;80.10
60437;BME280;46289;51.992;4.498;2023-02-02T09:20:54;102647.97;;;7.90;79.98
60437;BME280;46289;51.992;4.498;2023-02-02T09:22:59;102644.44;;;7.87;79.81
60437;BME280;46289;51.992;4.498;2023-02-02T09:25:08;102654.06;;;7.93;80.59
60437;BME280;46289;51.992;4.498;2023-02-02T09:27:16;102640.97;;;7.96;80.02
60437;BME280;46289;51.992;4.498;2023-02-02T09:29:20;102648.81;;;7.99;79.48
60437;BME280;46289;51.992;4.498;2023-02-02T09:31:25;102655.78;;;8.07;79.61
60437;BME280;46289;51.992;4.498;2023-02-02T09:33:31;102657.50;;;8.16;79.51
60437;BME280;46289;51.992;4.498;2023-02-02T09:35:37;102653.16;;;8.23;79.13
60437;BME280;46289;51.992;4.498;2023-02-02T09:37:42;102661.88;;;8.32;79.13
60437;BME280;46289;51.992;4.498;2023-02-02T09:39:48;102658.41;;;8.43;78.24
60437;BME280;46289;51.992;4.498;2023-02-02T09:42:16;102658.38;;;8.47;78.50
60437;BME280;46289;51.992;4.498;2023-02-02T09:44:47;102659.22;;;8.57;77.89
60437;BME280;46289;51.992;4.498;2023-02-02T09:47:07;102653.97;;;8.57;77.53
60437;BME280;46289;51.992;4.498;2023-02-02T09:49:18;102656.59;;;8.52;78.01
60437;BME280;46289;51.992;4.498;2023-02-02T09:51:27;102646.16;;;8.48;77.25
60437;BME280;46289;51.992;4.498;2023-02-02T09:53:41;102634.81;;;8.46;77.14
60437;BME280;46289;51.992;4.498;2023-02-02T09:55:58;102640.03;;;8.46;77.21
60437;BME280;46289;51.992;4.498;2023-02-02T09:58:12;102647.88;;;8.52;77.52
60437;BME280;46289;51.992;4.498;2023-02-02T10:00:26;102653.97;;;8.60;77.01
60437;BME280;46289;51.992;4.498;2023-02-02T10:02:38;102659.22;;;8.57;77.19
60437;BME280;46289;51.992;4.498;2023-02-02T10:04:53;102664.44;;;8.60;77.34
60437;BME280;46289;51.992;4.498;2023-02-02T10:07:04;102669.69;;;8.65;76.95
60437;BME280;46289;51.992;4.498;2023-02-02T10:09:16;102674.03;;;8.63;77.16
60437;BME280;46289;51.992;4.498;2023-02-02T10:11:31;102665.34;;;8.51;76.44
60437;BME280;46289;51.992;4.498;2023-02-02T10:13:41;102674.94;;;8.59;76.82
60437;BME280;46289;51.992;4.498;2023-02-02T10:15:53;102673.22;;;8.56;76.54
60437;BME280;46289;51.992;4.498;2023-02-02T10:18:09;102673.19;;;8.62;76.69
60437;BME280;46289;51.992;4.498;2023-02-02T10:20:27;102667.91;;;8.71;76.33
60437;BME280;46289;51.992;4.498;2023-02-02T10:22:39;102674.84;;;8.82;76.12
60437;BME280;46289;51.992;4.498;2023-02-02T10:24:47;102673.91;;;9.01;75.83
60437;BME280;46289;51.992;4.498;2023-02-02T10:26:56;102678.19;;;9.17;75.16
60437;BME280;46289;51.992;4.498;2023-02-02T10:29:16;102681.75;;;9.07;75.19
60437;BME280;46289;51.992;4.498;2023-02-02T10:31:34;102683.41;;;9.23;75.13
60437;BME280;46289;51.992;4.498;2023-02-02T10:33:46;102681.66;;;9.21;74.34
60437;BME280;46289;51.992;4.498;2023-02-02T10:35:59;102685.19;;;9.18;74.51
60437;BME280;46289;51.992;4.498;2023-02-02T10:38:15;102690.44;;;9.17;74.52
60437;BME280;46289;51.992;4.498;2023-02-02T10:40:37;102696.56;;;9.13;74.36
60437;BME280;46289;51.992;4.498;2023-02-02T10:43:06;102698.31;;;9.20;74.76
60437;BME280;46289;51.992;4.498;2023-02-02T10:45:38;102695.72;;;9.12;74.78
60437;BME280;46289;51.992;4.498;2023-02-02T10:47:45;102705.38;;;9.01;74.54
60437;BME280;46289;51.992;4.498;2023-02-02T10:49:55;102703.56;;;9.15;75.09
60437;BME280;46289;51.992;4.498;2023-02-02T10:52:14;102708.75;;;9.21;75.03
60437;BME280;46289;51.992;4.498;2023-02-02T10:54:30;102696.56;;;9.17;74.46
60437;BME280;46289;51.992;4.498;2023-02-02T10:56:58;102693.94;;;9.22;75.00
60437;BME280;46289;51.992;4.498;2023-02-02T10:59:06;102692.13;;;9.30;74.79
60437;BME280;46289;51.992;4.498;2023-02-02T11:01:16;102681.63;;;9.35;74.70
60437;BME280;46289;51.992;4.498;2023-02-02T11:03:26;102683.41;;;9.30;74.49
60437;BME280;46289;51.992;4.498;2023-02-02T11:05:32;102683.44;;;9.22;74.48
60437;BME280;46289;51.992;4.498;2023-02-02T11:08:11;102694.75;;;9.24;74.46
60437;BME280;46289;51.992;4.498;2023-02-02T11:10:16;102696.53;;;9.25;75.00
60437;BME280;46289;51.992;4.498;2023-02-02T11:12:24;102689.59;;;9.06;74.94
60437;BME280;46289;51.992;4.498;2023-02-02T11:14:36;102697.44;;;9.13;75.22
60437;BME280;46289;51.992;4.498;2023-02-02T11:17:02;102691.34;;;9.08;75.22
60437;BME280;46289;51.992;4.498;2023-02-02T11:19:21;102698.34;;;9.12;75.55
60437;BME280;46289;51.992;4.498;2023-02-02T11:21:29;102696.59;;;9.10;75.47
60437;BME280;46289;51.992;4.498;2023-02-02T11:23:37;102693.06;;;9.17;75.17